sensor_id;sensor_type;location;lat;lon;timestamp;temperature;humidity
9482;DHT22;4779;48.062;11.672;2023-09-30T00:00:11;17.90;99.90
9482;DHT22;4779;48.062;11.672;2023-09-30T00:02:38;17.90;99.90
9482;DHT22;4779;48.062;11.672;2023-09-30T00:05:06;17.80;99.90
9482;DHT22;4779;48.062;11.672;2023-09-30T00:07:33;17.80;99.90
9482;DHT22;4779;48.062;11.672;2023-09-30T00:10:02;17.80;99.90
9482;DHT22;4779;48.062;11.672;2023-09-30T00:12:29;17.80;99.90
9482;DHT22;4779;48.062;11.672;2023-09-30T00:14:56;17.90;99.90
9482;DHT22;4779;48.062;11.672;2023-09-30T00:17:23;17.80;99.90
9482;DHT22;4779;48.062;11.672;2023-09-30T00:19:51;17.70;99.90
9482;DHT22;4779;48.062;11.672;2023-09-30T00:22:18;17.60;99.90
9482;DHT22;4779;48.062;11.672;2023-09-30T00:24:45;17.70;99.90
9482;DHT22;4779;48.062;11.672;2023-09-30T00:27:14;17.60;99.90
9482;DHT22;4779;48.062;11.672;2023-09-30T00:29:41;17.60;99.90
9482;DHT22;4779;48.062;11.672;2023-09-30T00:32:08;17.70;99.90
9482;DHT22;4779;48.062;11.672;2023-09-30T00:34:35;17.70;99.90
9482;DHT22;4779;48.062;11.672;2023-09-30T00:37:02;17.70;99.90
9482;DHT22;4779;48.062;11.672;2023-09-30T00:39:29;17.70;99.90
9482;DHT22;4779;48.062;11.672;2023-09-30T00:41:57;17.70;99.90
9482;DHT22;4779;48.062;11.672;2023-09-30T00:44:27;17.70;99.90
9482;DHT22;4779;48.062;11.672;2023-09-30T00:46:56;17.70;99.90
9482;DHT22;4779;48.062;11.672;2023-09-30T00:49:24;17.70;99.90
9482;DHT22;4779;48.062;11.672;2023-09-30T00:51:52;17.70;99.90
9482;DHT22;4779;48.062;11.672;2023-09-30T00:54:21;17.70;99.90
9482;DHT22;4779;48.062;11.672;2023-09-30T00:56:50;17.70;99.90
9482;DHT22;4779;48.062;11.672;2023-09-30T00:59:17;17.70;99.90
9482;DHT22;4779;48.062;11.672;2023-09-30T01:01:47;17.70;99.90
9482;DHT22;4779;48.062;11.672;2023-09-30T01:04:14;17.60;99.90
9482;DHT22;4779;48.062;11.672;2023-09-30T01:06:42;17.70;99.90
9482;DHT22;4779;48.062;11.672;2023-09-30T01:09:09;17.60;99.90
9482;DHT22;4779;48.062;11.672;2023-09-30T01:11:39;17.70;99.90
9482;DHT22;4779;48.062;11.672;2023-09-30T01:14:25;17.70;99.90
9482;DHT22;4779;48.062;11.672;2023-09-30T01:16:53;17.80;99.90
9482;DHT22;4779;48.062;11.672;2023-09-30T01:19:20;17.80;99.90
9482;DHT22;4779;48.062;11.672;2023-09-30T01:21:52;17.80;99.90
9482;DHT22;4779;48.062;11.672;2023-09-30T01:24:20;17.80;99.90
9482;DHT22;4779;48.062;11.672;2023-09-30T01:26:47;17.80;99.90
9482;DHT22;4779;48.062;11.672;2023-09-30T01:29:14;17.70;99.90
9482;DHT22;4779;48.062;11.672;2023-09-30T01:31:42;17.70;99.90
9482;DHT22;4779;48.062;11.672;2023-09-30T01:34:13;17.80;99.90
9482;DHT22;4779;48.062;11.672;2023-09-30T01:36:40;17.70;99.90
9482;DHT22;4779;48.062;11.672;2023-09-30T01:39:09;17.80;99.90
9482;DHT22;4779;48.062;11.672;2023-09-30T01:41:36;17.70;99.90
9482;DHT22;4779;48.062;11.672;2023-09-30T01:44:04;17.70;99.90
9482;DHT22;4779;48.062;11.672;2023-09-30T01:46:31;17.70;99.90
9482;DHT22;4779;48.062;11.672;2023-09-30T01:48:58;17.70;99.90
9482;DHT22;4779;48.062;11.672;2023-09-30T01:51:25;17.70;99.90
9482;DHT22;4779;48.062;11.672;2023-09-30T01:53:53;17.70;99.90
9482;DHT22;4779;48.062;11.672;2023-09-30T01:56:22;17.70;99.90
9482;DHT22;4779;48.062;11.672;2023-09-30T01:58:49;17.60;99.90
9482;DHT22;4779;48.062;11.672;2023-09-30T02:01:16;17.60;99.90
9482;DHT22;4779;48.062;11.672;2023-09-30T02:03:43;17.60;99.90
9482;DHT22;4779;48.062;11.672;2023-09-30T02:06:10;17.60;99.90
9482;DHT22;4779;48.062;11.672;2023-09-30T02:08:37;17.60;99.90
9482;DHT22;4779;48.062;11.672;2023-09-30T02:11:06;17.50;99.90
9482;DHT22;4779;48.062;11.672;2023-09-30T02:13:35;17.60;99.90
9482;DHT22;4779;48.062;11.672;2023-09-30T02:16:02;17.60;99.90
9482;DHT22;4779;48.062;11.672;2023-09-30T02:18:29;17.60;99.90
9482;DHT22;4779;48.062;11.672;2023-09-30T02:20:58;17.60;99.90
9482;DHT22;4779;48.062;11.672;2023-09-30T02:23:26;17.60;99.90
9482;DHT22;4779;48.062;11.672;2023-09-30T02:25:53;17.50;99.90
9482;DHT22;4779;48.062;11.672;2023-09-30T02:28:20;17.50;99.90
9482;DHT22;4779;48.062;11.672;2023-09-30T02:30:48;17.50;99.90
9482;DHT22;4779;48.062;11.672;2023-09-30T02:33:15;17.50;99.90
9482;DHT22;4779;48.062;11.672;2023-09-30T02:35:44;17.50;99.90
9482;DHT22;4779;48.062;11.672;2023-09-30T02:38:12;17.40;99.90
9482;DHT22;4779;48.062;11.672;2023-09-30T02:40:41;17.40;99.90
9482;DHT22;4779;48.062;11.672;2023-09-30T02:43:12;17.40;99.90
9482;DHT22;4779;48.062;11.672;2023-09-30T02:45:39;17.40;99.90
9482;DHT22;4779;48.062;11.672;2023-09-30T02:48:07;17.50;99.90
9482;DHT22;4779;48.062;11.672;2023-09-30T02:50:34;17.50;99.90
9482;DHT22;4779;48.062;11.672;2023-09-30T02:53:02;17.40;99.90
9482;DHT22;4779;48.062;11.672;2023-09-30T02:55:29;17.40;99.90
9482;DHT22;4779;48.062;11.672;2023-09-30T02:57:57;17.40;99.90
9482;DHT22;4779;48.062;11.672;2023-09-30T03:00:24;17.40;99.90
9482;DHT22;4779;48.062;11.672;2023-09-30T03:02:52;17.30;99.90
9482;DHT22;4779;48.062;11.672;2023-09-30T03:05:21;17.40;99.90
9482;DHT22;4779;48.062;11.672;2023-09-30T03:07:49;17.40;99.90
9482;DHT22;4779;48.062;11.672;2023-09-30T03:10:16;17.40;99.90
9482;DHT22;4779;48.062;11.672;2023-09-30T03:12:46;17.40;99.90
9482;DHT22;4779;48.062;11.672;2023-09-30T03:15:13;17.30;99.90
9482;DHT22;4779;48.062;11.672;2023-09-30T03:17:40;17.30;99.90
9482;DHT22;4779;48.062;11.672;2023-09-30T03:20:08;17.30;99.90
9482;DHT22;4779;48.062;11.672;2023-09-30T03:22:38;17.30;99.90
9482;DHT22;4779;48.062;11.672;2023-09-30T03:25:06;17.30;99.90
9482;DHT22;4779;48.062;11.672;2023-09-30T03:27:34;17.30;99.90
9482;DHT22;4779;48.062;11.672;2023-09-30T03:30:02;17.20;99.90
9482;DHT22;4779;48.062;11.672;2023-09-30T03:32:31;17.30;99.90
9482;DHT22;4779;48.062;11.672;2023-09-30T03:34:58;17.20;99.90
9482;DHT22;4779;48.062;11.672;2023-09-30T03:37:26;17.20;99.90
9482;DHT22;4779;48.062;11.672;2023-09-30T03:39:55;17.20;99.90
9482;DHT22;4779;48.062;11.672;2023-09-30T03:42:23;17.20;99.90
9482;DHT22;4779;48.062;11.672;2023-09-30T03:44:50;17.30;99.90
9482;DHT22;4779;48.062;11.672;2023-09-30T03:47:18;17.30;99.90
9482;DHT22;4779;48.062;11.672;2023-09-30T03:49:46;17.30;99.90
9482;DHT22;4779;48.062;11.672;2023-09-30T03:52:13;17.30;99.90
9482;DHT22;4779;48.062;11.672;2023-09-30T03:54:40;17.20;99.90
9482;DHT22;4779;48.062;11.672;2023-09-30T03:57:09;17.10;99.90
9482;DHT22;4779;48.062;11.672;2023-09-30T03:59:38;17.10;99.90
9482;DHT22;4779;48.062;11.672;2023-09-30T04:02:05;17.10;99.90
9482;DHT22;4779;48.062;11.672;2023-09-30T04:04:33;17.10;99.90
9482;DHT22;4779;48.062;11.672;2023-09-30T04:07:02;17.20;99.90
9482;DHT22;4779;48.062;11.672;2023-09-30T04:09:31;17.20;99.90
9482;DHT22;4779;48.062;11.672;2023-09-30T04:11:58;17.20;99.90
9482;DHT22;4779;48.062;11.672;2023-09-30T04:14:27;17.20;99.90
9482;DHT22;4779;48.062;11.672;2023-09-30T04:16:54;17.20;99.90
9482;DHT22;4779;48.062;11.672;2023-09-30T04:19:21;17.20;99.90
9482;DHT22;4779;48.062;11.672;2023-09-30T04:21:48;17.10;99.90
9482;DHT22;4779;48.062;11.672;2023-09-30T04:24:16;17.10;99.90
9482;DHT22;4779;48.062;11.672;2023-09-30T04:26:44;17.10;99.90
9482;DHT22;4779;48.062;11.672;2023-09-30T04:29:11;17.10;99.90
9482;DHT22;4779;48.062;11.672;2023-09-30T04:31:41;17.10;99.90
9482;DHT22;4779;48.062;11.672;2023-09-30T04:34:08;17.10;99.90
9482;DHT22;4779;48.062;11.672;2023-09-30T04:36:35;17.10;99.90
9482;DHT22;4779;48.062;11.672;2023-09-30T04:39:03;17.10;99.90
9482;DHT22;4779;48.062;11.672;2023-09-30T04:41:31;17.00;99.90
9482;DHT22;4779;48.062;11.672;2023-09-30T04:43:58;17.10;99.90
9482;DHT22;4779;48.062;11.672;2023-09-30T04:46:26;17.10;99.90
9482;DHT22;4779;48.062;11.672;2023-09-30T04:48:54;17.10;99.90
9482;DHT22;4779;48.062;11.672;2023-09-30T04:51:21;17.00;99.90
9482;DHT22;4779;48.062;11.672;2023-09-30T04:53:51;17.00;99.90
9482;DHT22;4779;48.062;11.672;2023-09-30T04:56:20;17.00;99.90
9482;DHT22;4779;48.062;11.672;2023-09-30T04:58:47;16.90;99.90
9482;DHT22;4779;48.062;11.672;2023-09-30T05:01:14;16.80;99.90
9482;DHT22;4779;48.062;11.672;2023-09-30T05:03:44;16.80;99.90
9482;DHT22;4779;48.062;11.672;2023-09-30T05:06:15;16.80;99.90
9482;DHT22;4779;48.062;11.672;2023-09-30T05:08:42;16.80;99.90
9482;DHT22;4779;48.062;11.672;2023-09-30T05:11:09;16.80;99.90
9482;DHT22;4779;48.062;11.672;2023-09-30T05:13:36;16.80;99.90
9482;DHT22;4779;48.062;11.672;2023-09-30T05:16:03;16.80;99.90
9482;DHT22;4779;48.062;11.672;2023-09-30T05:18:31;16.80;99.90
9482;DHT22;4779;48.062;11.672;2023-09-30T05:20:58;16.80;99.90
9482;DHT22;4779;48.062;11.672;2023-09-30T05:23:27;16.80;99.90
9482;DHT22;4779;48.062;11.672;2023-09-30T05:25:54;16.80;99.90
9482;DHT22;4779;48.062;11.672;2023-09-30T05:28:21;16.90;99.90
9482;DHT22;4779;48.062;11.672;2023-09-30T05:30:48;16.90;99.90
9482;DHT22;4779;48.062;11.672;2023-09-30T05:33:16;16.90;99.90
9482;DHT22;4779;48.062;11.672;2023-09-30T05:35:43;16.90;99.90
9482;DHT22;4779;48.062;11.672;2023-09-30T05:38:10;16.90;99.90
9482;DHT22;4779;48.062;11.672;2023-09-30T05:40:39;16.90;99.90
9482;DHT22;4779;48.062;11.672;2023-09-30T05:43:07;16.90;99.90
9482;DHT22;4779;48.062;11.672;2023-09-30T05:45:34;17.00;99.90
9482;DHT22;4779;48.062;11.672;2023-09-30T05:48:02;17.00;99.90
9482;DHT22;4779;48.062;11.672;2023-09-30T05:50:32;17.00;99.90
9482;DHT22;4779;48.062;11.672;2023-09-30T05:53:00;17.00;99.90
9482;DHT22;4779;48.062;11.672;2023-09-30T05:55:27;17.00;99.90
9482;DHT22;4779;48.062;11.672;2023-09-30T05:57:56;17.00;99.90
9482;DHT22;4779;48.062;11.672;2023-09-30T06:00:23;17.00;99.90
9482;DHT22;4779;48.062;11.672;2023-09-30T06:02:54;17.00;99.90
9482;DHT22;4779;48.062;11.672;2023-09-30T06:05:21;17.00;99.90
9482;DHT22;4779;48.062;11.672;2023-09-30T06:07:49;17.00;99.90
9482;DHT22;4779;48.062;11.672;2023-09-30T06:10:16;17.00;99.90
9482;DHT22;4779;48.062;11.672;2023-09-30T06:12:44;17.00;99.90
9482;DHT22;4779;48.062;11.672;2023-09-30T06:15:13;17.00;99.90
9482;DHT22;4779;48.062;11.672;2023-09-30T06:17:41;17.00;99.90
9482;DHT22;4779;48.062;11.672;2023-09-30T06:20:09;17.00;99.90
9482;DHT22;4779;48.062;11.672;2023-09-30T06:22:42;17.00;99.90
9482;DHT22;4779;48.062;11.672;2023-09-30T06:25:11;17.00;99.90
9482;DHT22;4779;48.062;11.672;2023-09-30T06:27:38;17.00;99.90
9482;DHT22;4779;48.062;11.672;2023-09-30T06:30:06;17.00;99.90
9482;DHT22;4779;48.062;11.672;2023-09-30T06:32:36;17.00;99.90
9482;DHT22;4779;48.062;11.672;2023-09-30T06:35:03;16.90;99.90
9482;DHT22;4779;48.062;11.672;2023-09-30T06:37:32;16.90;99.90
9482;DHT22;4779;48.062;11.672;2023-09-30T06:39:59;16.80;99.90
9482;DHT22;4779;48.062;11.672;2023-09-30T06:42:29;16.90;99.90
9482;DHT22;4779;48.062;11.672;2023-09-30T06:44:56;16.90;99.90
9482;DHT22;4779;48.062;11.672;2023-09-30T06:47:23;17.00;99.90
9482;DHT22;4779;48.062;11.672;2023-09-30T06:49:52;17.10;99.90
9482;DHT22;4779;48.062;11.672;2023-09-30T06:52:19;17.10;99.90
9482;DHT22;4779;48.062;11.672;2023-09-30T06:54:46;17.20;99.90
9482;DHT22;4779;48.062;11.672;2023-09-30T06:57:13;17.20;99.90
9482;DHT22;4779;48.062;11.672;2023-09-30T06:59:40;17.20;99.90
9482;DHT22;4779;48.062;11.672;2023-09-30T07:02:07;17.20;99.90
9482;DHT22;4779;48.062;11.672;2023-09-30T07:04:34;17.30;99.90
9482;DHT22;4779;48.062;11.672;2023-09-30T07:07:03;17.30;99.90
9482;DHT22;4779;48.062;11.672;2023-09-30T07:09:30;17.30;99.90
9482;DHT22;4779;48.062;11.672;2023-09-30T07:11:57;17.30;99.90
9482;DHT22;4779;48.062;11.672;2023-09-30T07:14:24;17.30;99.90
9482;DHT22;4779;48.062;11.672;2023-09-30T07:16:51;17.30;99.90
9482;DHT22;4779;48.062;11.672;2023-09-30T07:19:18;17.30;99.90
9482;DHT22;4779;48.062;11.672;2023-09-30T07:21:45;17.50;99.90
9482;DHT22;4779;48.062;11.672;2023-09-30T07:24:13;17.50;99.90
9482;DHT22;4779;48.062;11.672;2023-09-30T07:26:40;17.60;99.90
9482;DHT22;4779;48.062;11.672;2023-09-30T07:29:09;17.70;99.90
9482;DHT22;4779;48.062;11.672;2023-09-30T07:31:36;17.70;99.90
9482;DHT22;4779;48.062;11.672;2023-09-30T07:34:03;17.70;99.90
9482;DHT22;4779;48.062;11.672;2023-09-30T07:36:30;17.70;99.90
9482;DHT22;4779;48.062;11.672;2023-09-30T07:38:57;17.50;99.90
9482;DHT22;4779;48.062;11.672;2023-09-30T07:41:27;17.50;99.90
9482;DHT22;4779;48.062;11.672;2023-09-30T07:43:54;17.30;99.90
9482;DHT22;4779;48.062;11.672;2023-09-30T07:46:21;17.30;99.90
9482;DHT22;4779;48.062;11.672;2023-09-30T07:48:48;17.40;99.90
9482;DHT22;4779;48.062;11.672;2023-09-30T07:51:15;17.30;99.90
9482;DHT22;4779;48.062;11.672;2023-09-30T07:53:42;17.30;99.90
9482;DHT22;4779;48.062;11.672;2023-09-30T07:56:09;17.30;99.90
9482;DHT22;4779;48.062;11.672;2023-09-30T07:58:38;17.40;99.90
9482;DHT22;4779;48.062;11.672;2023-09-30T08:01:05;17.50;99.90
9482;DHT22;4779;48.062;11.672;2023-09-30T08:03:32;17.50;99.90
9482;DHT22;4779;48.062;11.672;2023-09-30T08:06:00;17.60;99.90
9482;DHT22;4779;48.062;11.672;2023-09-30T08:08:27;17.40;99.90
9482;DHT22;4779;48.062;11.672;2023-09-30T08:10:55;17.50;99.90
9482;DHT22;4779;48.062;11.672;2023-09-30T08:13:22;17.60;99.90
9482;DHT22;4779;48.062;11.672;2023-09-30T08:15:51;17.70;99.90
9482;DHT22;4779;48.062;11.672;2023-09-30T08:18:19;17.90;99.90
9482;DHT22;4779;48.062;11.672;2023-09-30T08:20:46;18.00;99.90
9482;DHT22;4779;48.062;11.672;2023-09-30T08:23:14;18.20;99.90
9482;DHT22;4779;48.062;11.672;2023-09-30T08:25:41;18.30;99.90
9482;DHT22;4779;48.062;11.672;2023-09-30T08:28:09;18.20;99.90
9482;DHT22;4779;48.062;11.672;2023-09-30T08:30:36;18.10;99.90
9482;DHT22;4779;48.062;11.672;2023-09-30T08:33:05;18.10;99.90
9482;DHT22;4779;48.062;11.672;2023-09-30T08:35:35;18.00;99.90
9482;DHT22;4779;48.062;11.672;2023-09-30T08:38:03;18.10;99.90
9482;DHT22;4779;48.062;11.672;2023-09-30T08:40:31;18.30;99.90
9482;DHT22;4779;48.062;11.672;2023-09-30T08:42:58;18.40;99.90
9482;DHT22;4779;48.062;11.672;2023-09-30T08:45:28;18.50;99.90
9482;DHT22;4779;48.062;11.672;2023-09-30T08:47:55;18.50;99.90
9482;DHT22;4779;48.062;11.672;2023-09-30T08:50:25;18.40;99.90
9482;DHT22;4779;48.062;11.672;2023-09-30T08:52:56;18.50;99.90
9482;DHT22;4779;48.062;11.672;2023-09-30T08:55:24;18.60;99.90
9482;DHT22;4779;48.062;11.672;2023-09-30T08:57:54;18.70;99.90
9482;DHT22;4779;48.062;11.672;2023-09-30T09:00:22;19.00;99.90
9482;DHT22;4779;48.062;11.672;2023-09-30T09:02:50;19.20;99.90
9482;DHT22;4779;48.062;11.672;2023-09-30T09:05:17;19.10;99.90
9482;DHT22;4779;48.062;11.672;2023-09-30T09:07:45;19.20;99.90
9482;DHT22;4779;48.062;11.672;2023-09-30T09:10:13;19.20;99.90
9482;DHT22;4779;48.062;11.672;2023-09-30T09:12:41;19.10;99.90
9482;DHT22;4779;48.062;11.672;2023-09-30T09:15:20;19.10;99.90
9482;DHT22;4779;48.062;11.672;2023-09-30T09:17:48;19.30;99.90
9482;DHT22;4779;48.062;11.672;2023-09-30T09:20:17;19.70;99.90
9482;DHT22;4779;48.062;11.672;2023-09-30T09:22:49;20.00;99.90
9482;DHT22;4779;48.062;11.672;2023-09-30T09:25:19;20.10;99.90
9482;DHT22;4779;48.062;11.672;2023-09-30T09:27:48;20.40;99.90
9482;DHT22;4779;48.062;11.672;2023-09-30T09:30:17;20.40;99.90
9482;DHT22;4779;48.062;11.672;2023-09-30T09:33:01;20.40;99.90
9482;DHT22;4779;48.062;11.672;2023-09-30T09:35:31;20.10;99.90
9482;DHT22;4779;48.062;11.672;2023-09-30T09:38:02;19.80;99.90
9482;DHT22;4779;48.062;11.672;2023-09-30T09:40:30;19.70;99.90
9482;DHT22;4779;48.062;11.672;2023-09-30T09:42:59;19.60;99.90
9482;DHT22;4779;48.062;11.672;2023-09-30T09:45:28;19.40;99.90
9482;DHT22;4779;48.062;11.672;2023-09-30T09:47:58;19.40;99.90
9482;DHT22;4779;48.062;11.672;2023-09-30T09:50:25;19.50;99.90
9482;DHT22;4779;48.062;11.672;2023-09-30T09:52:54;19.60;99.90
9482;DHT22;4779;48.062;11.672;2023-09-30T09:55:24;19.60;99.90
9482;DHT22;4779;48.062;11.672;2023-09-30T09:57:51;19.60;99.90
9482;DHT22;4779;48.062;11.672;2023-09-30T10:00:20;20.00;99.90
9482;DHT22;4779;48.062;11.672;2023-09-30T10:02:49;20.60;99.90
9482;DHT22;4779;48.062;11.672;2023-09-30T10:05:19;21.40;99.90
9482;DHT22;4779;48.062;11.672;2023-09-30T10:07:51;22.20;99.90
9482;DHT22;4779;48.062;11.672;2023-09-30T10:10:21;22.80;99.90
9482;DHT22;4779;48.062;11.672;2023-09-30T10:12:50;23.50;99.90
9482;DHT22;4779;48.062;11.672;2023-09-30T10:15:38;23.60;96.90
9482;DHT22;4779;48.062;11.672;2023-09-30T10:18:07;23.50;97.70
9482;DHT22;4779;48.062;11.672;2023-09-30T10:20:36;23.70;98.10
9482;DHT22;4779;48.062;11.672;2023-09-30T10:23:23;23.70;96.80
9482;DHT22;4779;48.062;11.672;2023-09-30T10:25:53;23.40;96.50
9482;DHT22;4779;48.062;11.672;2023-09-30T10:28:40;23.60;97.90
9482;DHT22;4779;48.062;11.672;2023-09-30T10:31:10;23.60;95.30
9482;DHT22;4779;48.062;11.672;2023-09-30T10:34:17;23.50;95.80
9482;DHT22;4779;48.062;11.672;2023-09-30T10:36:45;22.90;95.80
9482;DHT22;4779;48.062;11.672;2023-09-30T10:39:14;22.50;95.80
9482;DHT22;4779;48.062;11.672;2023-09-30T10:41:49;21.90;96.90
9482;DHT22;4779;48.062;11.672;2023-09-30T10:44:36;21.70;97.20
9482;DHT22;4779;48.062;11.672;2023-09-30T10:47:34;21.80;98.10
9482;DHT22;4779;48.062;11.672;2023-09-30T10:50:02;21.90;98.40
9482;DHT22;4779;48.062;11.672;2023-09-30T10:52:30;21.90;98.10
9482;DHT22;4779;48.062;11.672;2023-09-30T10:55:03;21.80;98.20
9482;DHT22;4779;48.062;11.672;2023-09-30T10:57:30;21.90;98.50
9482;DHT22;4779;48.062;11.672;2023-09-30T11:00:09;21.80;97.80
9482;DHT22;4779;48.062;11.672;2023-09-30T11:02:48;21.60;96.50
9482;DHT22;4779;48.062;11.672;2023-09-30T11:05:16;21.40;96.80
9482;DHT22;4779;48.062;11.672;2023-09-30T11:07:45;21.10;99.00
9482;DHT22;4779;48.062;11.672;2023-09-30T11:10:16;21.10;97.90
9482;DHT22;4779;48.062;11.672;2023-09-30T11:12:54;21.30;98.00
9482;DHT22;4779;48.062;11.672;2023-09-30T11:15:23;21.60;98.90
9482;DHT22;4779;48.062;11.672;2023-09-30T11:17:52;21.80;98.70
9482;DHT22;4779;48.062;11.672;2023-09-30T11:20:20;22.10;97.50
9482;DHT22;4779;48.062;11.672;2023-09-30T11:22:47;22.30;97.50
9482;DHT22;4779;48.062;11.672;2023-09-30T11:25:16;22.40;96.40
9482;DHT22;4779;48.062;11.672;2023-09-30T11:27:45;22.40;95.30
9482;DHT22;4779;48.062;11.672;2023-09-30T11:30:13;22.50;95.50
9482;DHT22;4779;48.062;11.672;2023-09-30T11:32:42;22.50;96.00
9482;DHT22;4779;48.062;11.672;2023-09-30T11:35:09;22.60;95.20
9482;DHT22;4779;48.062;11.672;2023-09-30T11:37:41;22.70;95.30
9482;DHT22;4779;48.062;11.672;2023-09-30T11:40:12;22.50;95.50
9482;DHT22;4779;48.062;11.672;2023-09-30T11:42:40;22.10;94.50
9482;DHT22;4779;48.062;11.672;2023-09-30T11:45:22;22.10;95.10
9482;DHT22;4779;48.062;11.672;2023-09-30T11:47:51;22.10;96.80
9482;DHT22;4779;48.062;11.672;2023-09-30T11:50:18;22.00;95.70
9482;DHT22;4779;48.062;11.672;2023-09-30T11:52:45;22.00;94.50
9482;DHT22;4779;48.062;11.672;2023-09-30T11:55:13;22.00;95.00
9482;DHT22;4779;48.062;11.672;2023-09-30T11:57:42;21.80;95.40
9482;DHT22;4779;48.062;11.672;2023-09-30T12:00:10;21.60;96.50
9482;DHT22;4779;48.062;11.672;2023-09-30T12:02:40;21.40;97.00
9482;DHT22;4779;48.062;11.672;2023-09-30T12:05:09;21.20;96.90
9482;DHT22;4779;48.062;11.672;2023-09-30T12:07:37;21.00;97.40
9482;DHT22;4779;48.062;11.672;2023-09-30T12:10:07;20.80;95.80
9482;DHT22;4779;48.062;11.672;2023-09-30T12:12:35;20.70;95.70
9482;DHT22;4779;48.062;11.672;2023-09-30T12:15:06;20.60;95.60
9482;DHT22;4779;48.062;11.672;2023-09-30T12:17:34;20.90;96.30
9482;DHT22;4779;48.062;11.672;2023-09-30T12:20:03;21.50;97.80
9482;DHT22;4779;48.062;11.672;2023-09-30T12:22:33;21.80;95.20
9482;DHT22;4779;48.062;11.672;2023-09-30T12:25:03;22.20;96.10
9482;DHT22;4779;48.062;11.672;2023-09-30T12:27:30;22.50;95.20
9482;DHT22;4779;48.062;11.672;2023-09-30T12:29:57;22.90;95.70
9482;DHT22;4779;48.062;11.672;2023-09-30T12:32:25;23.10;95.10
9482;DHT22;4779;48.062;11.672;2023-09-30T12:34:52;23.40;94.60
9482;DHT22;4779;48.062;11.672;2023-09-30T12:37:20;23.50;93.90
9482;DHT22;4779;48.062;11.672;2023-09-30T12:39:48;23.40;94.00
9482;DHT22;4779;48.062;11.672;2023-09-30T12:42:15;23.30;94.30
9482;DHT22;4779;48.062;11.672;2023-09-30T12:44:42;23.10;93.10
9482;DHT22;4779;48.062;11.672;2023-09-30T12:47:09;23.00;93.20
9482;DHT22;4779;48.062;11.672;2023-09-30T12:49:36;23.00;93.80
9482;DHT22;4779;48.062;11.672;2023-09-30T12:52:03;23.10;92.90
9482;DHT22;4779;48.062;11.672;2023-09-30T12:54:32;23.30;93.00
9482;DHT22;4779;48.062;11.672;2023-09-30T12:57:01;23.40;94.20
9482;DHT22;4779;48.062;11.672;2023-09-30T12:59:28;23.60;92.40
9482;DHT22;4779;48.062;11.672;2023-09-30T13:01:55;23.70;92.80
9482;DHT22;4779;48.062;11.672;2023-09-30T13:04:22;23.60;92.10
9482;DHT22;4779;48.062;11.672;2023-09-30T13:06:50;23.20;92.50
9482;DHT22;4779;48.062;11.672;2023-09-30T13:09:18;23.10;92.40
9482;DHT22;4779;48.062;11.672;2023-09-30T13:11:45;23.00;91.50
9482;DHT22;4779;48.062;11.672;2023-09-30T13:14:14;23.00;92.80
9482;DHT22;4779;48.062;11.672;2023-09-30T13:16:44;23.00;91.60
9482;DHT22;4779;48.062;11.672;2023-09-30T13:19:11;22.80;92.60
9482;DHT22;4779;48.062;11.672;2023-09-30T13:21:38;22.60;92.80
9482;DHT22;4779;48.062;11.672;2023-09-30T13:24:07;22.50;93.20
9482;DHT22;4779;48.062;11.672;2023-09-30T13:26:35;22.30;93.60
9482;DHT22;4779;48.062;11.672;2023-09-30T13:29:02;22.10;93.70
9482;DHT22;4779;48.062;11.672;2023-09-30T13:31:32;22.10;94.30
9482;DHT22;4779;48.062;11.672;2023-09-30T13:33:59;21.90;92.50
9482;DHT22;4779;48.062;11.672;2023-09-30T13:36:26;22.20;94.00
9482;DHT22;4779;48.062;11.672;2023-09-30T13:38:53;22.50;92.30
9482;DHT22;4779;48.062;11.672;2023-09-30T13:41:20;22.60;92.90
9482;DHT22;4779;48.062;11.672;2023-09-30T13:43:47;22.80;92.30
9482;DHT22;4779;48.062;11.672;2023-09-30T13:46:14;22.80;91.50
9482;DHT22;4779;48.062;11.672;2023-09-30T13:48:43;22.70;92.30
9482;DHT22;4779;48.062;11.672;2023-09-30T13:51:10;22.80;94.20
9482;DHT22;4779;48.062;11.672;2023-09-30T13:53:37;22.80;92.50
9482;DHT22;4779;48.062;11.672;2023-09-30T13:56:04;22.90;91.50
9482;DHT22;4779;48.062;11.672;2023-09-30T13:58:33;22.90;92.20
9482;DHT22;4779;48.062;11.672;2023-09-30T14:01:03;23.00;90.50
9482;DHT22;4779;48.062;11.672;2023-09-30T14:03:30;23.20;92.20
9482;DHT22;4779;48.062;11.672;2023-09-30T14:05:59;23.30;92.30
9482;DHT22;4779;48.062;11.672;2023-09-30T14:08:26;23.30;93.50
9482;DHT22;4779;48.062;11.672;2023-09-30T14:10:53;23.40;93.90
9482;DHT22;4779;48.062;11.672;2023-09-30T14:13:21;23.30;93.20
9482;DHT22;4779;48.062;11.672;2023-09-30T14:15:49;23.10;92.90
9482;DHT22;4779;48.062;11.672;2023-09-30T14:18:18;22.50;92.90
9482;DHT22;4779;48.062;11.672;2023-09-30T14:20:45;22.20;94.10
9482;DHT22;4779;48.062;11.672;2023-09-30T14:23:14;22.20;94.40
9482;DHT22;4779;48.062;11.672;2023-09-30T14:25:41;22.10;93.70
9482;DHT22;4779;48.062;11.672;2023-09-30T14:28:08;22.00;94.50
9482;DHT22;4779;48.062;11.672;2023-09-30T14:30:36;21.80;94.60
9482;DHT22;4779;48.062;11.672;2023-09-30T14:33:03;21.80;95.00
9482;DHT22;4779;48.062;11.672;2023-09-30T14:35:32;21.80;93.80
9482;DHT22;4779;48.062;11.672;2023-09-30T14:38:00;21.70;94.00
9482;DHT22;4779;48.062;11.672;2023-09-30T14:40:28;21.60;95.30
9482;DHT22;4779;48.062;11.672;2023-09-30T14:42:55;21.50;95.60
9482;DHT22;4779;48.062;11.672;2023-09-30T14:45:22;21.40;96.00
9482;DHT22;4779;48.062;11.672;2023-09-30T14:47:52;21.20;96.20
9482;DHT22;4779;48.062;11.672;2023-09-30T14:50:19;21.00;96.30
9482;DHT22;4779;48.062;11.672;2023-09-30T14:52:46;20.80;96.00
9482;DHT22;4779;48.062;11.672;2023-09-30T14:55:14;20.80;96.50
9482;DHT22;4779;48.062;11.672;2023-09-30T14:57:46;20.70;97.00
9482;DHT22;4779;48.062;11.672;2023-09-30T15:00:16;20.70;97.20
9482;DHT22;4779;48.062;11.672;2023-09-30T15:02:50;20.60;97.30
9482;DHT22;4779;48.062;11.672;2023-09-30T15:05:17;20.50;96.40
9482;DHT22;4779;48.062;11.672;2023-09-30T15:07:44;20.60;96.60
9482;DHT22;4779;48.062;11.672;2023-09-30T15:10:12;20.60;97.00
9482;DHT22;4779;48.062;11.672;2023-09-30T15:12:39;20.70;96.90
9482;DHT22;4779;48.062;11.672;2023-09-30T15:15:08;20.60;97.70
9482;DHT22;4779;48.062;11.672;2023-09-30T15:17:35;20.60;97.40
9482;DHT22;4779;48.062;11.672;2023-09-30T15:20:03;20.60;96.80
9482;DHT22;4779;48.062;11.672;2023-09-30T15:22:33;20.50;96.40
9482;DHT22;4779;48.062;11.672;2023-09-30T15:25:03;20.50;96.30
9482;DHT22;4779;48.062;11.672;2023-09-30T15:27:30;20.50;97.50
9482;DHT22;4779;48.062;11.672;2023-09-30T15:29:59;20.40;96.30
9482;DHT22;4779;48.062;11.672;2023-09-30T15:32:30;20.40;97.70
9482;DHT22;4779;48.062;11.672;2023-09-30T15:34:57;20.30;97.30
9482;DHT22;4779;48.062;11.672;2023-09-30T15:37:26;20.20;96.90
9482;DHT22;4779;48.062;11.672;2023-09-30T15:39:53;20.20;98.70
9482;DHT22;4779;48.062;11.672;2023-09-30T15:42:20;20.10;98.10
9482;DHT22;4779;48.062;11.672;2023-09-30T15:44:47;20.10;97.40
9482;DHT22;4779;48.062;11.672;2023-09-30T15:47:14;20.00;97.70
9482;DHT22;4779;48.062;11.672;2023-09-30T15:49:42;20.00;97.90
9482;DHT22;4779;48.062;11.672;2023-09-30T15:52:09;20.00;97.90